Time,TemperatureF,DewpointF,PressureIn,WindDirection,WindDirectionDegrees,WindSpeedMPH,WindSpeedGustMPH,Humidity,HourlyPrecipIn,Conditions,Clouds,dailyrainin,SoftwareType,DateUTC
2013-06-19 00:04:00,69.7,63.9,29.98,South,190,0.0,0.0,81,0.00,,,-99.99,Meteorologica,2013-06-19 05:04:00,
2013-06-19 00:09:00,69.5,63.8,29.98,South,190,0.0,0.0,82,0.00,,,-99.99,Meteorologica,2013-06-19 05:09:00,
2013-06-19 00:14:00,69.4,63.9,29.98,South,190,0.0,0.0,82,0.00,,,-99.99,Meteorologica,2013-06-19 05:14:00,
2013-06-19 00:19:00,69.2,63.8,29.98,South,190,0.0,0.0,82,0.00,,,-99.99,Meteorologica,2013-06-19 05:19:00,
2013-06-19 00:24:00,69.1,63.9,29.98,South,190,0.0,0.0,83,0.00,,,-99.99,Meteorologica,2013-06-19 05:24:00,
2013-06-19 00:29:00,69.0,63.8,29.98,South,190,0.0,0.0,83,0.00,,,-99.99,Meteorologica,2013-06-19 05:29:00,
2013-06-19 00:34:00,68.8,63.7,29.99,South,190,0.0,0.0,83,0.00,,,-99.99,Meteorologica,2013-06-19 05:34:00,
2013-06-19 00:39:00,68.6,63.6,29.99,South,190,0.0,0.0,84,0.00,,,-99.99,Meteorologica,2013-06-19 05:39:00,
2013-06-19 00:44:00,68.4,63.5,30.00,South,190,0.0,0.0,84,0.00,,,-99.99,Meteorologica,2013-06-19 05:44:00,
2013-06-19 00:49:00,68.5,63.7,30.00,South,190,0.0,0.0,84,0.00,,,-99.99,Meteorologica,2013-06-19 05:49:00,
2013-06-19 00:54:00,68.4,63.7,30.00,South,190,0.0,0.0,84,0.00,,,-99.99,Meteorologica,2013-06-19 05:54:00,
2013-06-19 00:59:00,68.3,63.7,30.01,South,190,0.0,0.0,85,0.00,,,-99.99,Meteorologica,2013-06-19 05:59:00,
2013-06-19 01:04:00,68.2,63.6,30.00,South,190,0.0,0.0,85,0.00,,,-99.99,Meteorologica,2013-06-19 06:04:00,
2013-06-19 01:09:00,68.1,63.6,30.00,South,190,0.0,0.0,85,0.00,,,-99.99,Meteorologica,2013-06-19 06:09:00,
2013-06-19 01:14:00,68.0,63.5,30.00,South,190,0.0,0.0,85,0.00,,,-99.99,Meteorologica,2013-06-19 06:14:00,
2013-06-19 01:19:00,67.9,63.5,30.00,South,190,0.0,0.0,85,0.00,,,-99.99,Meteorologica,2013-06-19 06:19:00,
2013-06-19 01:24:00,67.9,63.6,30.00,South,190,0.0,0.0,85,0.00,,,-99.99,Meteorologica,2013-06-19 06:24:00,
2013-06-19 01:29:00,67.7,63.5,30.00,South,190,0.0,0.0,86,0.00,,,-99.99,Meteorologica,2013-06-19 06:29:00,
2013-06-19 01:34:00,67.7,63.5,30.00,South,190,0.0,0.0,86,0.00,,,-99.99,Meteorologica,2013-06-19 06:34:00,
2013-06-19 01:39:00,67.7,63.5,29.99,South,190,0.0,0.0,86,0.00,,,-99.99,Meteorologica,2013-06-19 06:39:00,
2013-06-19 01:44:00,67.7,63.5,29.99,South,190,0.0,0.0,86,0.00,,,-99.99,Meteorologica,2013-06-19 06:44:00,
2013-06-19 01:49:00,67.8,63.6,30.00,South,190,0.0,0.0,86,0.00,,,-99.99,Meteorologica,2013-06-19 06:49:00,
2013-06-19 01:54:00,67.7,63.5,30.00,South,190,0.0,0.0,86,0.00,,,-99.99,Meteorologica,2013-06-19 06:54:00,
2013-06-19 01:59:00,67.4,63.3,30.00,South,190,0.0,0.0,86,0.00,,,-99.99,Meteorologica,2013-06-19 06:59:00,
2013-06-19 02:04:00,67.3,63.2,30.00,South,190,0.0,0.0,86,0.00,,,-99.99,Meteorologica,2013-06-19 07:04:00,
2013-06-19 02:09:00,67.1,63.2,29.99,South,190,0.0,0.0,87,0.00,,,-99.99,Meteorologica,2013-06-19 07:09:00,
2013-06-19 02:14:00,67.0,63.1,29.99,South,190,0.0,0.0,87,0.00,,,-99.99,Meteorologica,2013-06-19 07:14:00,
2013-06-19 02:19:00,67.0,63.1,29.98,South,190,0.0,0.0,87,0.00,,,-99.99,Meteorologica,2013-06-19 07:19:00,
2013-06-19 02:24:00,67.0,63.2,29.98,South,190,0.0,0.0,87,0.00,,,-99.99,Meteorologica,2013-06-19 07:24:00,
2013-06-19 02:29:00,67.0,63.1,29.98,South,190,0.0,0.0,87,0.00,,,-99.99,Meteorologica,2013-06-19 07:29:00,
2013-06-19 02:34:00,67.1,63.2,29.98,South,190,0.0,0.0,87,0.00,,,-99.99,Meteorologica,2013-06-19 07:34:00,
2013-06-19 02:39:00,67.0,63.1,29.98,South,190,0.0,0.0,87,0.00,,,-99.99,Meteorologica,2013-06-19 07:39:00,
2013-06-19 02:44:00,66.9,63.0,29.98,South,190,0.0,0.0,87,0.00,,,-99.99,Meteorologica,2013-06-19 07:44:00,
2013-06-19 02:49:00,66.8,63.1,29.98,South,190,0.0,0.0,87,0.00,,,-99.99,Meteorologica,2013-06-19 07:49:00,
2013-06-19 02:54:00,66.7,63.0,29.98,South,190,0.0,0.0,88,0.00,,,-99.99,Meteorologica,2013-06-19 07:54:00,
2013-06-19 02:59:00,66.7,63.1,29.98,South,190,0.0,0.0,88,0.00,,,-99.99,Meteorologica,2013-06-19 07:59:00,
2013-06-19 03:04:00,66.7,63.1,29.98,South,190,0.0,0.0,88,0.00,,,-99.99,Meteorologica,2013-06-19 08:04:00,
2013-06-19 03:09:00,66.5,62.9,29.98,South,190,0.0,0.0,88,0.00,,,-99.99,Meteorologica,2013-06-19 08:09:00,
2013-06-19 03:14:00,66.4,62.8,29.98,South,190,0.0,0.0,88,0.00,,,-99.99,Meteorologica,2013-06-19 08:14:00,
2013-06-19 03:19:00,66.4,62.8,29.98,South,190,0.0,0.0,88,0.00,,,-99.99,Meteorologica,2013-06-19 08:19:00,
2013-06-19 03:24:00,66.3,62.8,29.98,South,190,0.0,0.0,88,0.00,,,-99.99,Meteorologica,2013-06-19 08:24:00,
2013-06-19 03:29:00,66.3,62.8,29.98,South,190,0.0,0.0,88,0.00,,,-99.99,Meteorologica,2013-06-19 08:29:00,
2013-06-19 03:34:00,66.3,62.8,29.98,South,190,0.0,0.0,88,0.00,,,-99.99,Meteorologica,2013-06-19 08:34:00,
2013-06-19 03:39:00,66.2,62.8,29.98,South,190,0.0,0.0,88,0.00,,,-99.99,Meteorologica,2013-06-19 08:39:00,
2013-06-19 03:44:00,66.0,62.7,29.98,South,190,0.0,0.0,89,0.00,,,-99.99,Meteorologica,2013-06-19 08:44:00,
2013-06-19 03:49:00,65.9,62.7,29.98,South,190,0.0,0.0,89,0.00,,,-99.99,Meteorologica,2013-06-19 08:49:00,
2013-06-19 03:54:00,65.8,62.6,29.98,South,190,0.0,0.0,89,0.00,,,-99.99,Meteorologica,2013-06-19 08:54:00,
2013-06-19 03:59:00,65.7,62.6,29.97,South,190,0.0,0.0,89,0.00,,,-99.99,Meteorologica,2013-06-19 08:59:00,
2013-06-19 04:04:00,65.6,62.6,29.98,South,190,0.0,0.0,90,0.00,,,-99.99,Meteorologica,2013-06-19 09:04:00,
2013-06-19 04:09:00,65.6,62.6,29.96,South,190,0.0,0.0,90,0.00,,,-99.99,Meteorologica,2013-06-19 09:09:00,
2013-06-19 04:14:00,65.6,62.6,29.97,South,190,0.0,0.0,90,0.00,,,-99.99,Meteorologica,2013-06-19 09:14:00,
2013-06-19 04:19:00,65.5,62.5,29.97,South,190,0.0,0.0,90,0.00,,,-99.99,Meteorologica,2013-06-19 09:19:00,
2013-06-19 04:24:00,65.4,62.4,29.97,South,190,0.0,0.0,90,0.00,,,-99.99,Meteorologica,2013-06-19 09:24:00,
2013-06-19 04:29:00,65.4,62.5,29.97,South,190,0.0,0.0,90,0.00,,,-99.99,Meteorologica,2013-06-19 09:29:00,
2013-06-19 04:34:00,65.4,62.5,29.97,South,190,0.0,0.0,90,0.00,,,-99.99,Meteorologica,2013-06-19 09:34:00,
2013-06-19 04:39:00,65.4,62.5,29.97,South,190,0.0,0.0,90,0.00,,,-99.99,Meteorologica,2013-06-19 09:39:00,
2013-06-19 04:44:00,65.5,62.6,29.97,South,190,0.0,0.0,90,0.00,,,-99.99,Meteorologica,2013-06-19 09:44:00,
2013-06-19 04:49:00,65.4,62.4,29.97,South,190,0.0,0.0,90,0.00,,,-99.99,Meteorologica,2013-06-19 09:49:00,
2013-06-19 04:54:00,65.5,62.5,29.97,South,190,0.0,0.0,90,0.00,,,-99.99,Meteorologica,2013-06-19 09:54:00,
2013-06-19 04:59:00,65.6,62.6,29.97,SSE,152,1.4,3.3,90,0.00,,,-99.99,Meteorologica,2013-06-19 09:59:00,
2013-06-19 05:04:00,65.6,62.6,29.97,SSE,152,0.0,0.0,90,0.00,,,-99.99,Meteorologica,2013-06-19 10:04:00,
2013-06-19 05:09:00,65.6,62.6,29.97,SSE,152,0.0,0.0,90,0.00,,,-99.99,Meteorologica,2013-06-19 10:09:00,
2013-06-19 05:14:00,65.6,62.6,29.97,SSE,152,0.0,0.0,90,0.00,,,-99.99,Meteorologica,2013-06-19 10:14:00,
2013-06-19 05:19:00,65.5,62.5,29.98,SSE,152,0.0,0.0,90,0.00,,,-99.99,Meteorologica,2013-06-19 10:19:00,
2013-06-19 05:24:00,65.5,62.5,29.97,SSE,152,0.0,0.0,90,0.00,,,-99.99,Meteorologica,2013-06-19 10:24:00,
2013-06-19 05:29:00,65.6,62.6,29.97,ESE,115,0.0,3.4,90,0.00,,,-99.99,Meteorologica,2013-06-19 10:29:00,
2013-06-19 05:34:00,65.6,62.6,29.97,South,184,0.0,4.5,90,0.00,,,-99.99,Meteorologica,2013-06-19 10:34:00,
2013-06-19 05:39:00,65.7,62.7,29.98,West,263,0.0,2.9,90,0.00,,,-99.99,Meteorologica,2013-06-19 10:39:00,
2013-06-19 05:44:00,65.8,62.8,29.98,West,263,0.0,0.0,90,0.00,,,-99.99,Meteorologica,2013-06-19 10:44:00,
2013-06-19 05:49:00,65.8,62.7,29.98,West,263,0.0,0.0,89,0.00,,,-99.99,Meteorologica,2013-06-19 10:49:00,
2013-06-19 05:54:00,65.9,62.9,29.98,West,263,0.0,0.0,90,0.00,,,-99.99,Meteorologica,2013-06-19 10:54:00,
2013-06-19 05:59:00,65.9,62.8,29.98,West,263,0.0,0.0,89,0.00,,,-99.99,Meteorologica,2013-06-19 10:59:00,
2013-06-19 06:04:00,65.8,62.7,29.98,West,263,0.0,0.0,89,0.00,,,-99.99,Meteorologica,2013-06-19 11:04:00,
2013-06-19 06:09:00,65.8,62.8,29.98,West,263,0.0,0.0,90,0.00,,,-99.99,Meteorologica,2013-06-19 11:09:00,
2013-06-19 06:14:00,65.8,62.8,29.98,SW,215,0.0,7.3,90,0.00,,,-99.99,Meteorologica,2013-06-19 11:14:00,
2013-06-19 06:19:00,65.7,62.7,29.99,South,175,3.4,6.4,90,0.00,,,-99.99,Meteorologica,2013-06-19 11:19:00,
2013-06-19 06:24:00,65.8,62.7,29.99,SSE,166,0.0,5.1,90,0.00,,,-99.99,Meteorologica,2013-06-19 11:24:00,
2013-06-19 06:29:00,65.7,62.7,29.99,SE,132,0.5,3.3,90,0.00,,,-99.99,Meteorologica,2013-06-19 11:29:00,
2013-06-19 06:34:00,65.7,62.7,29.99,SE,125,0.0,4.7,90,0.00,,,-99.99,Meteorologica,2013-06-19 11:34:00,
2013-06-19 06:39:00,65.8,62.9,29.99,SE,125,0.0,0.0,90,0.00,,,-99.99,Meteorologica,2013-06-19 11:39:00,
2013-06-19 06:44:00,65.8,62.9,30.00,SW,225,1.3,4.8,90,0.00,,,-99.99,Meteorologica,2013-06-19 11:44:00,
2013-06-19 06:49:00,66.0,63.0,30.00,SE,141,0.0,3.3,90,0.00,,,-99.99,Meteorologica,2013-06-19 11:49:00,
2013-06-19 06:54:00,66.1,63.1,30.00,SSW,204,0.0,6.8,90,0.00,,,-99.99,Meteorologica,2013-06-19 11:54:00,
2013-06-19 06:59:00,66.2,63.2,30.00,SW,220,0.3,5.4,90,0.00,,,-99.99,Meteorologica,2013-06-19 11:59:00,
2013-06-19 07:04:00,66.4,63.3,29.99,SW,220,0.0,0.0,89,0.00,,,-99.99,Meteorologica,2013-06-19 12:04:00,
2013-06-19 07:09:00,66.8,63.6,30.00,South,169,3.1,7.1,89,0.00,,,-99.99,Meteorologica,2013-06-19 12:09:00,
2013-06-19 07:14:00,66.9,63.6,30.00,South,170,2.9,5.5,89,0.00,,,-99.99,Meteorologica,2013-06-19 12:14:00,
2013-06-19 07:19:00,67.1,63.8,30.00,SSE,153,0.0,0.0,89,0.00,,,-99.99,Meteorologica,2013-06-19 12:19:00,
2013-06-19 07:24:00,67.4,63.9,30.00,South,187,0.9,5.8,88,0.00,,,-99.99,Meteorologica,2013-06-19 12:24:00,
2013-06-19 07:29:00,67.9,64.1,29.99,SSE,149,3.3,5.8,87,0.00,,,-99.99,Meteorologica,2013-06-19 12:29:00,
2013-06-19 07:34:00,68.3,64.4,29.99,South,187,0.7,3.4,87,0.00,,,-99.99,Meteorologica,2013-06-19 12:34:00,
2013-06-19 07:39:00,68.7,64.2,30.00,South,171,3.3,6.8,85,0.00,,,-99.99,Meteorologica,2013-06-19 12:39:00,
2013-06-19 07:44:00,69.2,64.6,29.99,SW,228,0.0,6.2,85,0.00,,,-99.99,Meteorologica,2013-06-19 12:44:00,
2013-06-19 07:49:00,69.5,64.2,30.00,SW,216,5.7,9.3,83,0.00,,,-99.99,Meteorologica,2013-06-19 12:49:00,
2013-06-19 07:54:00,70.1,64.8,30.00,ESE,108,2.4,6.0,83,0.00,,,-99.99,Meteorologica,2013-06-19 12:54:00,
2013-06-19 07:59:00,70.5,64.8,30.00,SSW,206,3.2,7.4,81,0.00,,,-99.99,Meteorologica,2013-06-19 12:59:00,
2013-06-19 08:04:00,70.7,64.9,30.00,South,182,1.5,5.1,81,0.00,,,-99.99,Meteorologica,2013-06-19 13:04:00,
2013-06-19 08:09:00,70.8,64.7,30.00,South,172,4.4,7.9,80,0.00,,,-99.99,Meteorologica,2013-06-19 13:09:00,
2013-06-19 08:14:00,71.3,64.9,30.00,SW,223,1.5,4.7,80,0.00,,,-99.99,Meteorologica,2013-06-19 13:14:00,
2013-06-19 08:19:00,71.4,64.9,30.00,SW,225,0.4,7.0,79,0.00,,,-99.99,Meteorologica,2013-06-19 13:19:00,
2013-06-19 08:24:00,71.4,64.9,30.00,SE,144,3.0,6.5,79,0.00,,,-99.99,Meteorologica,2013-06-19 13:24:00,
2013-06-19 08:29:00,71.5,64.8,30.01,SE,138,6.1,8.2,79,0.00,,,-99.99,Meteorologica,2013-06-19 13:29:00,
2013-06-19 08:34:00,71.5,64.6,30.01,SE,135,4.5,7.4,78,0.00,,,-99.99,Meteorologica,2013-06-19 13:34:00,
2013-06-19 08:39:00,71.6,64.8,30.00,ESE,119,0.8,4.6,78,0.00,,,-99.99,Meteorologica,2013-06-19 13:39:00,
2013-06-19 08:44:00,71.5,65.0,30.00,East,81,0.0,3.3,79,0.00,,,-99.99,Meteorologica,2013-06-19 13:44:00,
2013-06-19 08:49:00,71.6,64.8,30.01,South,186,4.9,7.6,79,0.00,,,-99.99,Meteorologica,2013-06-19 13:49:00,
2013-06-19 08:54:00,71.6,64.7,30.00,South,181,2.6,7.4,78,0.00,,,-99.99,Meteorologica,2013-06-19 13:54:00,
2013-06-19 08:59:00,71.7,64.7,30.01,SSE,160,4.5,8.2,78,0.00,,,-99.99,Meteorologica,2013-06-19 13:59:00,
2013-06-19 09:04:00,71.6,64.6,30.00,South,177,4.9,7.1,78,0.00,,,-99.99,Meteorologica,2013-06-19 14:04:00,
2013-06-19 09:09:00,71.7,64.8,30.00,SSW,199,1.8,6.4,78,0.00,,,-99.99,Meteorologica,2013-06-19 14:09:00,
2013-06-19 09:14:00,71.8,64.7,30.00,SE,141,3.7,8.1,77,0.00,,,-99.99,Meteorologica,2013-06-19 14:14:00,
2013-06-19 09:19:00,72.1,64.8,30.00,ENE,77,4.5,8.6,77,0.00,,,-99.99,Meteorologica,2013-06-19 14:19:00,
2013-06-19 09:24:00,72.0,64.4,30.01,SSE,168,5.0,7.3,76,0.00,,,-99.99,Meteorologica,2013-06-19 14:24:00,
2013-06-19 09:29:00,72.1,64.8,30.01,South,173,3.3,6.4,77,0.00,,,-99.99,Meteorologica,2013-06-19 14:29:00,
2013-06-19 09:34:00,72.3,65.1,30.01,SE,141,4.0,7.0,77,0.00,,,-99.99,Meteorologica,2013-06-19 14:34:00,
2013-06-19 09:39:00,72.6,65.0,30.01,SW,235,4.3,5.7,76,0.00,,,-99.99,Meteorologica,2013-06-19 14:39:00,
2013-06-19 09:44:00,73.1,64.9,30.01,SSE,156,2.5,6.3,75,0.00,,,-99.99,Meteorologica,2013-06-19 14:44:00,
2013-06-19 09:49:00,73.4,65.2,30.01,SW,219,5.5,8.1,75,0.00,,,-99.99,Meteorologica,2013-06-19 14:49:00,
2013-06-19 09:54:00,73.8,65.7,30.00,SSE,149,3.3,6.8,75,0.00,,,-99.99,Meteorologica,2013-06-19 14:54:00,
2013-06-19 09:59:00,73.9,65.1,30.00,SSW,195,6.2,8.9,73,0.00,,,-99.99,Meteorologica,2013-06-19 14:59:00,
2013-06-19 10:04:00,74.5,65.8,30.00,SE,124,3.7,5.5,74,0.00,,,-99.99,Meteorologica,2013-06-19 15:04:00,
2013-06-19 10:09:00,75.4,65.9,30.00,SSE,153,0.7,4.4,71,0.00,,,-99.99,Meteorologica,2013-06-19 15:09:00,
2013-06-19 10:14:00,75.6,66.0,30.00,SSW,207,3.0,4.9,71,0.00,,,-99.99,Meteorologica,2013-06-19 15:14:00,
2013-06-19 10:19:00,75.8,66.2,30.00,South,175,0.0,5.8,71,0.00,,,-99.99,Meteorologica,2013-06-19 15:19:00,
2013-06-19 10:24:00,76.3,66.1,30.00,South,173,0.9,4.5,70,0.00,,,-99.99,Meteorologica,2013-06-19 15:24:00,
2013-06-19 10:29:00,77.0,65.9,29.99,South,179,4.6,8.6,68,0.00,,,-99.99,Meteorologica,2013-06-19 15:29:00,
2013-06-19 10:34:00,77.7,66.6,30.00,East,94,0.5,6.3,68,0.00,,,-99.99,Meteorologica,2013-06-19 15:34:00,
2013-06-19 10:39:00,77.9,66.8,29.99,North,7,2.0,5.5,68,0.00,,,-99.99,Meteorologica,2013-06-19 15:39:00,
2013-06-19 10:44:00,78.7,66.8,29.99,SE,127,1.6,4.7,66,0.00,,,-99.99,Meteorologica,2013-06-19 15:44:00,
2013-06-19 10:49:00,79.2,67.5,29.99,South,171,0.6,7.4,66,0.00,,,-99.99,Meteorologica,2013-06-19 15:49:00,
2013-06-19 10:54:00,79.4,66.7,29.99,SSW,198,0.8,5.0,64,0.00,,,-99.99,Meteorologica,2013-06-19 15:54:00,
2013-06-19 10:59:00,79.9,65.9,29.99,South,186,6.4,10.7,61,0.00,,,-99.99,Meteorologica,2013-06-19 15:59:00,
2013-06-19 11:04:00,80.3,66.9,29.99,SE,139,0.0,4.6,63,0.00,,,-99.99,Meteorologica,2013-06-19 16:04:00,
2013-06-19 11:09:00,80.5,67.4,29.98,SSE,148,3.8,8.7,63,0.00,,,-99.99,Meteorologica,2013-06-19 16:09:00,
2013-06-19 11:14:00,81.1,67.1,29.98,South,174,3.0,5.5,62,0.00,,,-99.99,Meteorologica,2013-06-19 16:14:00,
2013-06-19 11:19:00,81.8,66.8,29.97,SSW,210,3.5,8.9,60,0.00,,,-99.99,Meteorologica,2013-06-19 16:19:00,
2013-06-19 11:24:00,82.0,66.7,29.98,South,190,3.5,10.0,59,0.00,,,-99.99,Meteorologica,2013-06-19 16:24:00,
2013-06-19 11:29:00,82.1,66.0,29.98,SW,216,5.0,8.0,58,0.00,,,-99.99,Meteorologica,2013-06-19 16:29:00,
2013-06-19 11:34:00,82.3,67.0,29.97,SE,138,5.1,10.6,58,0.00,,,-99.99,Meteorologica,2013-06-19 16:34:00,
2013-06-19 11:39:00,82.6,67.0,29.97,SE,142,2.5,6.8,58,0.00,,,-99.99,Meteorologica,2013-06-19 16:39:00,
2013-06-19 11:44:00,83.2,67.0,29.97,SSW,193,1.6,7.6,57,0.00,,,-99.99,Meteorologica,2013-06-19 16:44:00,
2013-06-19 11:49:00,83.2,67.2,29.97,South,188,7.4,11.5,58,0.00,,,-99.99,Meteorologica,2013-06-19 16:49:00,
2013-06-19 11:54:00,83.3,67.6,29.97,WSW,241,4.5,7.2,58,0.00,,,-99.99,Meteorologica,2013-06-19 16:54:00,
2013-06-19 11:59:00,83.1,67.6,29.97,SW,231,4.7,10.6,59,0.00,,,-99.99,Meteorologica,2013-06-19 16:59:00,
2013-06-19 12:04:00,83.5,67.1,29.97,SSE,163,5.9,9.9,57,0.00,,,-99.99,Meteorologica,2013-06-19 17:04:00,
2013-06-19 12:09:00,83.5,67.2,29.97,SSW,197,4.6,8.7,57,0.00,,,-99.99,Meteorologica,2013-06-19 17:09:00,
2013-06-19 12:14:00,83.8,67.4,29.96,SSE,160,3.7,8.9,57,0.00,,,-99.99,Meteorologica,2013-06-19 17:14:00,
2013-06-19 12:19:00,83.9,67.5,29.97,WSW,245,5.1,13.2,57,0.00,,,-99.99,Meteorologica,2013-06-19 17:19:00,
2013-06-19 12:24:00,84.4,68.3,29.97,SSE,151,2.2,9.9,58,0.00,,,-99.99,Meteorologica,2013-06-19 17:24:00,
2013-06-19 12:29:00,84.6,67.1,29.97,South,187,3.0,10.6,55,0.00,,,-99.99,Meteorologica,2013-06-19 17:29:00,
2013-06-19 12:34:00,84.5,67.0,29.96,South,178,7.8,13.1,55,0.00,,,-99.99,Meteorologica,2013-06-19 17:34:00,
2013-06-19 12:39:00,84.7,67.6,29.96,South,180,1.5,8.2,56,0.00,,,-99.99,Meteorologica,2013-06-19 17:39:00,
2013-06-19 12:44:00,85.3,68.1,29.96,ESE,108,3.3,9.5,56,0.00,,,-99.99,Meteorologica,2013-06-19 17:44:00,
2013-06-19 12:49:00,85.2,66.6,29.96,South,171,5.9,12.1,53,0.00,,,-99.99,Meteorologica,2013-06-19 17:49:00,
2013-06-19 12:54:00,85.5,67.9,29.96,SSW,202,4.5,9.9,55,0.00,,,-99.99,Meteorologica,2013-06-19 17:54:00,
2013-06-19 12:59:00,85.7,67.6,29.95,SE,135,2.4,9.5,54,0.00,,,-99.99,Meteorologica,2013-06-19 17:59:00,
2013-06-19 13:04:00,85.7,66.5,29.96,South,187,0.0,7.5,52,0.00,,,-99.99,Meteorologica,2013-06-19 18:04:00,
2013-06-19 13:09:00,85.5,66.0,29.96,SSW,199,4.0,9.5,52,0.00,,,-99.99,Meteorologica,2013-06-19 18:09:00,
2013-06-19 13:14:00,85.1,65.4,29.95,SW,223,8.1,13.2,51,0.00,,,-99.99,Meteorologica,2013-06-19 18:14:00,
2013-06-19 13:19:00,85.8,66.3,29.95,SSE,156,3.6,10.5,52,0.00,,,-99.99,Meteorologica,2013-06-19 18:19:00,
2013-06-19 13:24:00,85.6,65.4,29.95,South,172,9.3,14.5,49,0.00,,,-99.99,Meteorologica,2013-06-19 18:24:00,
2013-06-19 13:29:00,86.2,66.9,29.95,ENE,74,5.6,12.9,51,0.00,,,-99.99,Meteorologica,2013-06-19 18:29:00,
2013-06-19 13:34:00,85.7,65.4,29.95,SE,139,7.3,15.0,50,0.00,,,-99.99,Meteorologica,2013-06-19 18:34:00,
2013-06-19 13:39:00,86.0,67.1,29.95,East,95,3.1,12.9,53,0.00,,,-99.99,Meteorologica,2013-06-19 18:39:00,
2013-06-19 13:44:00,86.2,68.3,29.95,SSE,147,4.1,9.0,54,0.00,,,-99.99,Meteorologica,2013-06-19 18:44:00,
2013-06-19 13:49:00,85.4,65.4,29.94,SSW,206,9.5,13.2,51,0.00,,,-99.99,Meteorologica,2013-06-19 18:49:00,
2013-06-19 13:54:00,85.7,67.2,29.94,SE,141,3.2,16.4,53,0.00,,,-99.99,Meteorologica,2013-06-19 18:54:00,
2013-06-19 13:59:00,85.9,67.3,29.94,SSE,166,6.4,11.5,53,0.00,,,-99.99,Meteorologica,2013-06-19 18:59:00,
2013-06-19 14:04:00,86.1,66.8,29.94,ESE,119,4.7,14.7,52,0.00,,,-99.99,Meteorologica,2013-06-19 19:04:00,
2013-06-19 14:09:00,86.5,67.7,29.94,SSW,195,2.9,9.4,53,0.00,,,-99.99,Meteorologica,2013-06-19 19:09:00,
2013-06-19 14:14:00,86.8,66.8,29.94,SE,138,5.1,12.6,51,0.00,,,-99.99,Meteorologica,2013-06-19 19:14:00,
2013-06-19 14:19:00,86.9,65.3,29.95,SW,230,8.6,14.1,48,0.00,,,-99.99,Meteorologica,2013-06-19 19:19:00,
2013-06-19 14:24:00,86.6,66.6,29.94,SSW,206,2.1,9.2,51,0.00,,,-99.99,Meteorologica,2013-06-19 19:24:00,
2013-06-19 14:29:00,86.7,66.3,29.94,SSE,159,6.0,10.0,50,0.00,,,-99.99,Meteorologica,2013-06-19 19:29:00,
2013-06-19 14:34:00,86.9,67.5,29.94,SE,146,2.7,9.7,52,0.00,,,-99.99,Meteorologica,2013-06-19 19:34:00,
2013-06-19 14:39:00,86.6,66.1,29.94,South,175,7.7,11.7,50,0.00,,,-99.99,Meteorologica,2013-06-19 19:39:00,
2013-06-19 14:44:00,86.5,67.5,29.94,SE,135,2.9,10.5,53,0.00,,,-99.99,Meteorologica,2013-06-19 19:44:00,
2013-06-19 14:49:00,86.6,66.8,29.94,SSW,196,6.8,13.0,51,0.00,,,-99.99,Meteorologica,2013-06-19 19:49:00,
2013-06-19 14:54:00,87.2,65.1,29.94,South,191,7.3,11.3,47,0.00,,,-99.99,Meteorologica,2013-06-19 19:54:00,
2013-06-19 14:59:00,87.0,65.8,29.94,East,81,5.3,14.7,49,0.00,,,-99.99,Meteorologica,2013-06-19 19:59:00,
2013-06-19 15:04:00,86.8,66.1,29.94,South,183,9.4,13.8,50,0.00,,,-99.99,Meteorologica,2013-06-19 20:04:00,
2013-06-19 15:09:00,87.0,65.9,29.94,SW,223,9.7,19.6,49,0.00,,,-99.99,Meteorologica,2013-06-19 20:09:00,
2013-06-19 15:14:00,87.3,66.7,29.94,ESE,112,5.7,14.6,50,0.00,,,-99.99,Meteorologica,2013-06-19 20:14:00,
2013-06-19 15:19:00,87.0,66.7,29.94,SSW,195,5.6,15.2,50,0.00,,,-99.99,Meteorologica,2013-06-19 20:19:00,
2013-06-19 15:24:00,86.6,66.0,29.94,South,181,6.4,15.8,50,0.00,,,-99.99,Meteorologica,2013-06-19 20:24:00,
2013-06-19 15:29:00,87.0,66.8,29.93,ESE,108,2.3,3.5,50,0.00,,,-99.99,Meteorologica,2013-06-19 20:29:00,
2013-06-19 15:34:00,87.3,66.5,29.93,SSW,194,4.2,11.3,49,0.00,,,-99.99,Meteorologica,2013-06-19 20:34:00,
2013-06-19 15:39:00,87.1,65.2,29.93,SW,228,8.8,12.9,48,0.00,,,-99.99,Meteorologica,2013-06-19 20:39:00,
2013-06-19 15:44:00,87.3,66.4,29.93,South,169,4.2,12.2,49,0.00,,,-99.99,Meteorologica,2013-06-19 20:44:00,
2013-06-19 15:49:00,87.4,67.0,29.93,SE,142,1.5,7.9,50,0.00,,,-99.99,Meteorologica,2013-06-19 20:49:00,
2013-06-19 15:54:00,87.7,66.5,29.93,SSW,211,5.6,10.7,49,0.00,,,-99.99,Meteorologica,2013-06-19 20:54:00,
2013-06-19 15:59:00,87.8,65.4,29.93,SSW,204,5.9,13.9,47,0.00,,,-99.99,Meteorologica,2013-06-19 20:59:00,
2013-06-19 16:04:00,87.6,66.3,29.93,South,183,6.0,14.9,49,0.00,,,-99.99,Meteorologica,2013-06-19 21:04:00,
2013-06-19 16:09:00,87.7,65.8,29.93,ESE,112,5.6,17.3,48,0.00,,,-99.99,Meteorologica,2013-06-19 21:09:00,
2013-06-19 16:14:00,87.6,65.2,29.93,South,179,2.2,11.0,47,0.00,,,-99.99,Meteorologica,2013-06-19 21:14:00,
2013-06-19 16:19:00,87.1,64.0,29.93,SSW,195,7.8,12.6,46,0.00,,,-99.99,Meteorologica,2013-06-19 21:19:00,
2013-06-19 16:24:00,87.3,63.6,29.92,ESE,105,8.1,14.1,45,0.00,,,-99.99,Meteorologica,2013-06-19 21:24:00,
2013-06-19 16:29:00,87.6,62.9,29.92,South,180,7.4,12.5,43,0.00,,,-99.99,Meteorologica,2013-06-19 21:29:00,
2013-06-19 16:34:00,87.7,64.7,29.92,SW,223,4.7,9.7,46,0.00,,,-99.99,Meteorologica,2013-06-19 21:34:00,
2013-06-19 16:39:00,87.7,64.0,29.92,SW,220,6.8,12.1,45,0.00,,,-99.99,Meteorologica,2013-06-19 21:39:00,
2013-06-19 16:44:00,87.9,64.0,29.91,SE,142,4.1,12.1,45,0.00,,,-99.99,Meteorologica,2013-06-19 21:44:00,
2013-06-19 16:49:00,88.0,64.1,29.92,South,191,8.1,15.1,45,0.00,,,-99.99,Meteorologica,2013-06-19 21:49:00,
2013-06-19 16:54:00,88.0,63.8,29.91,SSW,195,6.6,11.3,44,0.00,,,-99.99,Meteorologica,2013-06-19 21:54:00,
2013-06-19 16:59:00,87.9,64.1,29.91,SSW,196,6.1,16.4,45,0.00,,,-99.99,Meteorologica,2013-06-19 21:59:00,
2013-06-19 17:04:00,88.1,64.0,29.91,South,177,6.9,11.4,44,0.00,,,-99.99,Meteorologica,2013-06-19 22:04:00,
2013-06-19 17:09:00,87.7,63.3,29.91,South,189,8.1,13.5,44,0.00,,,-99.99,Meteorologica,2013-06-19 22:09:00,
2013-06-19 17:14:00,88.0,64.1,29.91,NNE,22,4.9,11.2,45,0.00,,,-99.99,Meteorologica,2013-06-19 22:14:00,
2013-06-19 17:19:00,88.0,65.1,29.91,SW,218,4.7,10.1,46,0.00,,,-99.99,Meteorologica,2013-06-19 22:19:00,
2013-06-19 17:24:00,88.4,65.6,29.91,SSW,206,3.1,11.2,46,0.00,,,-99.99,Meteorologica,2013-06-19 22:24:00,
2013-06-19 17:29:00,88.3,65.4,29.91,SSE,166,4.8,13.9,47,0.00,,,-99.99,Meteorologica,2013-06-19 22:29:00,
2013-06-19 17:34:00,87.9,65.3,29.91,South,186,5.3,9.7,47,0.00,,,-99.99,Meteorologica,2013-06-19 22:34:00,
2013-06-19 17:39:00,86.9,64.3,29.90,WSW,240,9.1,16.6,47,0.00,,,-99.99,Meteorologica,2013-06-19 22:39:00,
2013-06-19 17:44:00,86.7,64.5,29.90,SSW,213,6.6,18.6,47,0.00,,,-99.99,Meteorologica,2013-06-19 22:44:00,
2013-06-19 17:49:00,87.1,65.2,29.90,SSE,164,3.6,7.5,48,0.00,,,-99.99,Meteorologica,2013-06-19 22:49:00,
2013-06-19 17:54:00,87.4,65.1,29.90,WSW,251,4.3,12.7,47,0.00,,,-99.99,Meteorologica,2013-06-19 22:54:00,
2013-06-19 17:59:00,87.6,64.6,29.90,SE,127,5.8,11.6,46,0.00,,,-99.99,Meteorologica,2013-06-19 22:59:00,
2013-06-19 18:04:00,87.5,63.5,29.90,South,187,7.0,16.0,44,0.00,,,-99.99,Meteorologica,2013-06-19 23:04:00,
2013-06-19 18:09:00,87.3,63.0,29.89,SW,232,5.9,13.5,44,0.00,,,-99.99,Meteorologica,2013-06-19 23:09:00,
2013-06-19 18:14:00,87.1,63.3,29.89,South,175,5.9,13.1,45,0.00,,,-99.99,Meteorologica,2013-06-19 23:14:00,
2013-06-19 18:19:00,87.2,63.4,29.89,SE,146,4.3,11.8,45,0.00,,,-99.99,Meteorologica,2013-06-19 23:19:00,
2013-06-19 18:24:00,87.1,63.1,29.89,SW,232,7.7,15.7,44,0.00,,,-99.99,Meteorologica,2013-06-19 23:24:00,
2013-06-19 18:29:00,86.8,63.2,29.90,SW,234,8.0,13.9,45,0.00,,,-99.99,Meteorologica,2013-06-19 23:29:00,
2013-06-19 18:34:00,87.0,63.2,29.89,South,169,6.8,11.4,45,0.00,,,-99.99,Meteorologica,2013-06-19 23:34:00,
2013-06-19 18:39:00,86.4,63.9,29.89,SSE,160,7.7,15.7,47,0.00,,,-99.99,Meteorologica,2013-06-19 23:39:00,
2013-06-19 18:44:00,86.4,63.8,29.90,South,169,6.6,11.0,46,0.00,,,-99.99,Meteorologica,2013-06-19 23:44:00,
2013-06-19 18:49:00,86.3,64.5,29.89,SE,128,1.7,13.5,48,0.00,,,-99.99,Meteorologica,2013-06-19 23:49:00,
2013-06-19 18:54:00,86.3,64.4,29.90,SW,227,2.9,16.4,48,0.00,,,-99.99,Meteorologica,2013-06-19 23:54:00,
2013-06-19 18:59:00,86.2,64.7,29.90,South,185,3.8,11.3,48,0.00,,,-99.99,Meteorologica,2013-06-19 23:59:00,
2013-06-19 19:04:00,85.5,63.1,29.90,SSE,156,7.1,11.5,47,0.00,,,-99.99,Meteorologica,2013-06-20 00:04:00,
2013-06-19 19:09:00,85.4,63.1,29.90,SSW,212,5.3,13.6,47,0.00,,,-99.99,Meteorologica,2013-06-20 00:09:00,
2013-06-19 19:14:00,85.4,62.9,29.89,SSW,212,7.1,11.2,46,0.00,,,-99.99,Meteorologica,2013-06-20 00:14:00,
2013-06-19 19:19:00,85.5,63.3,29.90,SSW,212,2.9,10.2,47,0.00,,,-99.99,Meteorologica,2013-06-20 00:19:00,
2013-06-19 19:24:00,85.5,62.7,29.90,South,173,4.9,10.4,46,0.00,,,-99.99,Meteorologica,2013-06-20 00:24:00,
2013-06-19 19:29:00,85.1,62.9,29.90,SSW,195,3.0,11.7,47,0.00,,,-99.99,Meteorologica,2013-06-20 00:29:00,
2013-06-19 19:34:00,85.1,63.3,29.90,South,173,6.1,10.9,47,0.00,,,-99.99,Meteorologica,2013-06-20 00:34:00,
2013-06-19 19:39:00,85.1,63.7,29.90,ENE,57,0.4,7.0,48,0.00,,,-99.99,Meteorologica,2013-06-20 00:39:00,
2013-06-19 19:44:00,84.7,63.7,29.90,SW,218,4.9,11.8,49,0.00,,,-99.99,Meteorologica,2013-06-20 00:44:00,
2013-06-19 19:49:00,84.5,63.5,29.90,WSW,242,1.5,8.7,49,0.00,,,-99.99,Meteorologica,2013-06-20 00:49:00,
2013-06-19 19:54:00,84.4,62.7,29.90,East,101,3.5,9.5,48,0.00,,,-99.99,Meteorologica,2013-06-20 00:54:00,
2013-06-19 19:59:00,84.0,62.3,29.90,South,171,3.4,9.2,47,0.00,,,-99.99,Meteorologica,2013-06-20 00:59:00,
2013-06-19 20:04:00,83.8,62.2,29.90,SE,134,3.1,10.3,47,0.00,,,-99.99,Meteorologica,2013-06-20 01:04:00,
2013-06-19 20:09:00,83.5,62.4,29.90,South,189,2.4,9.4,48,0.00,,,-99.99,Meteorologica,2013-06-20 01:09:00,
2013-06-19 20:14:00,83.1,62.4,29.90,SE,136,3.8,8.9,49,0.00,,,-99.99,Meteorologica,2013-06-20 01:14:00,
2013-06-19 20:19:00,82.6,62.3,29.90,SW,234,1.9,7.0,50,0.00,,,-99.99,Meteorologica,2013-06-20 01:19:00,
2013-06-19 20:24:00,82.4,62.7,29.90,SW,231,4.6,8.3,51,0.00,,,-99.99,Meteorologica,2013-06-20 01:24:00,
2013-06-19 20:29:00,82.4,63.4,29.90,South,170,0.2,8.2,52,0.00,,,-99.99,Meteorologica,2013-06-20 01:29:00,
2013-06-19 20:34:00,81.7,63.1,29.90,SE,132,2.1,6.4,53,0.00,,,-99.99,Meteorologica,2013-06-20 01:34:00,
2013-06-19 20:39:00,81.4,63.1,29.90,WSW,244,1.0,6.6,53,0.00,,,-99.99,Meteorologica,2013-06-20 01:39:00,
2013-06-19 20:44:00,81.2,63.3,29.91,South,186,2.9,7.6,54,0.00,,,-99.99,Meteorologica,2013-06-20 01:44:00,
2013-06-19 20:49:00,80.9,63.5,29.90,SSE,155,3.6,7.3,55,0.00,,,-99.99,Meteorologica,2013-06-20 01:49:00,
2013-06-19 20:54:00,80.6,63.3,29.91,SW,218,0.0,5.4,55,0.00,,,-99.99,Meteorologica,2013-06-20 01:54:00,
2013-06-19 21:00:00,80.3,63.4,29.90,SE,124,2.0,6.8,56,0.00,,,-99.99,Meteorologica,2013-06-20 02:00:00,
2013-06-19 21:05:00,80.1,63.4,29.91,South,172,0.0,6.6,56,0.00,,,-99.99,Meteorologica,2013-06-20 02:05:00,
2013-06-19 21:10:00,79.8,63.4,29.90,South,172,0.0,0.0,57,0.00,,,-99.99,Meteorologica,2013-06-20 02:10:00,
2013-06-19 21:15:00,79.5,63.6,29.91,South,191,4.3,8.0,57,0.00,,,-99.99,Meteorologica,2013-06-20 02:15:00,
2013-06-19 21:20:00,79.1,63.8,29.90,SSE,163,0.0,8.4,58,0.00,,,-99.99,Meteorologica,2013-06-20 02:20:00,
2013-06-19 21:25:00,78.8,63.8,29.91,SSE,163,0.0,0.0,59,0.00,,,-99.99,Meteorologica,2013-06-20 02:25:00,
2013-06-19 21:30:00,78.7,63.7,29.91,SE,134,0.0,6.3,59,0.00,,,-99.99,Meteorologica,2013-06-20 02:30:00,
2013-06-19 21:35:00,78.4,63.5,29.91,SSW,199,3.5,7.4,60,0.00,,,-99.99,Meteorologica,2013-06-20 02:35:00,
2013-06-19 21:40:00,78.3,63.7,29.91,ESE,112,0.0,7.9,60,0.00,,,-99.99,Meteorologica,2013-06-20 02:40:00,
2013-06-19 21:45:00,78.1,63.7,29.91,SSW,211,0.0,9.0,60,0.00,,,-99.99,Meteorologica,2013-06-20 02:45:00,
2013-06-19 21:50:00,77.9,63.6,29.92,SSE,155,0.6,6.4,61,0.00,,,-99.99,Meteorologica,2013-06-20 02:50:00,
2013-06-19 21:55:00,77.9,63.7,29.91,South,181,3.3,8.3,61,0.00,,,-99.99,Meteorologica,2013-06-20 02:55:00,
2013-06-19 22:00:00,77.7,63.8,29.92,SSW,211,2.9,6.8,61,0.00,,,-99.99,Meteorologica,2013-06-20 03:00:00,
2013-06-19 22:05:00,77.4,63.7,29.93,South,182,2.2,6.3,62,0.00,,,-99.99,Meteorologica,2013-06-20 03:05:00,
2013-06-19 22:10:00,77.1,63.6,29.93,South,190,0.1,6.1,62,0.00,,,-99.99,Meteorologica,2013-06-20 03:10:00,
2013-06-19 22:15:00,76.9,63.7,29.93,SE,141,2.4,5.6,63,0.00,,,-99.99,Meteorologica,2013-06-20 03:15:00,
2013-06-19 22:20:00,76.6,63.6,29.93,ESE,114,1.3,4.2,63,0.00,,,-99.99,Meteorologica,2013-06-20 03:20:00,
2013-06-19 22:25:00,76.5,63.6,29.93,SSW,210,1.3,7.1,64,0.00,,,-99.99,Meteorologica,2013-06-20 03:25:00,
2013-06-19 22:30:00,76.4,63.8,29.93,SSW,204,0.0,7.3,64,0.00,,,-99.99,Meteorologica,2013-06-20 03:30:00,
2013-06-19 22:35:00,76.3,63.8,29.93,East,94,3.1,6.8,64,0.00,,,-99.99,Meteorologica,2013-06-20 03:35:00,
2013-06-19 22:40:00,76.2,63.8,29.93,SE,139,0.3,8.1,65,0.00,,,-99.99,Meteorologica,2013-06-20 03:40:00,
2013-06-19 22:45:00,76.1,64.0,29.93,SSE,159,0.0,7.9,65,0.00,,,-99.99,Meteorologica,2013-06-20 03:45:00,
2013-06-19 22:50:00,75.8,64.0,29.93,South,190,0.9,4.6,66,0.00,,,-99.99,Meteorologica,2013-06-20 03:50:00,
2013-06-19 22:55:00,75.6,63.9,29.94,SE,143,2.2,7.6,66,0.00,,,-99.99,Meteorologica,2013-06-20 03:55:00,
2013-06-19 23:00:00,75.5,63.9,29.93,SE,135,0.0,7.9,66,0.00,,,-99.99,Meteorologica,2013-06-20 04:00:00,
2013-06-19 23:02:00,75.6,64.0,29.93,South,191,0.9,3.2,66,0.00,,,-99.99,Meteorologica,2013-06-20 04:02:00,
2013-06-19 23:03:00,75.7,64.2,29.93,South,169,4.1,8.2,67,0.00,,,-99.99,Meteorologica,2013-06-20 04:03:00,
2013-06-19 23:05:00,75.6,64.1,29.93,SSE,149,0.0,8.2,67,0.00,,,-99.99,Meteorologica,2013-06-20 04:05:00,
2013-06-19 23:08:00,75.7,64.4,29.93,SE,146,0.2,3.3,67,0.00,,,-99.99,Meteorologica,2013-06-20 04:08:00,
2013-06-19 23:13:00,75.3,64.2,29.94,SSW,199,0.0,0.0,67,0.00,,,-99.99,Meteorologica,2013-06-20 04:13:00,
2013-06-19 23:17:00,75.3,64.4,29.94,SE,128,2.7,5.2,68,0.00,,,-99.99,Meteorologica,2013-06-20 04:17:00,
2013-06-19 23:22:00,75.2,64.5,29.94,SSE,160,0.0,0.0,68,0.00,,,-99.99,Meteorologica,2013-06-20 04:22:00,
2013-06-19 23:27:00,75.0,64.5,29.94,SW,225,2.2,5.0,69,0.00,,,-99.99,Meteorologica,2013-06-20 04:27:00,
2013-06-19 23:32:00,74.9,64.5,29.94,SSW,206,2.0,4.7,69,0.00,,,-99.99,Meteorologica,2013-06-20 04:32:00,
2013-06-19 23:37:00,74.8,64.6,29.94,SSW,213,1.5,4.7,70,0.00,,,-99.99,Meteorologica,2013-06-20 04:37:00,
2013-06-19 23:42:00,74.5,64.4,29.94,SSE,159,4.6,8.4,70,0.00,,,-99.99,Meteorologica,2013-06-20 04:42:00,
2013-06-19 23:47:00,74.6,64.6,29.94,SSW,200,1.9,5.2,70,0.00,,,-99.99,Meteorologica,2013-06-20 04:47:00,
2013-06-19 23:52:00,74.4,64.6,29.94,South,189,3.8,5.3,71,0.00,,,-99.99,Meteorologica,2013-06-20 04:52:00,
2013-06-19 23:57:00,74.2,64.7,29.94,WSW,247,0.0,0.0,71,0.00,,,-99.99,Meteorologica,2013-06-20 04:57:00,